PNF206 LPPT-GOBD
Flight info
| Callsign | PNF206 |
|---|---|
| Flight time | 3h 46m |
| Altitude | 31000 |
| Route | BEVOP DCT BAROK UN873 SAMAR N873 GDV M660 DKH L660 MAURI DCT PE UB600 LIMAX LIMAX1A |
| Aircraft | B738/M-SDE2E3FGHIRWXY/LB1 |
Departure
| Time | 2026-04-25 17:45 |
|---|---|
| Airport | Lisbon Humberto Delgado Airport (LPPT) |
Arrival
| Time | 2026-04-25 21:32 |
|---|---|
| Airport | Blaise Diagne International Airport (GOBD) |
| Time | Latitude | Longitude | Altitude | Speed | Heading |
|---|---|---|---|---|---|
| 2026-04-25 16:55 | 38.76470 | -9.13684 | 351 ft | 0 kts | 167° |
| 2026-04-25 17:34 | 38.76477 | -9.13686 | 351 ft | 2 kts | 167° |
| 2026-04-25 17:34 | 38.76492 | -9.13690 | 350 ft | 2 kts | 168° |
| 2026-04-25 17:34 | 38.76506 | -9.13694 | 350 ft | 2 kts | 167° |
| 2026-04-25 17:35 | 38.76521 | -9.13699 | 349 ft | 2 kts | 168° |
| 2026-04-25 17:35 | 38.76536 | -9.13696 | 349 ft | 2 kts | 208° |
| 2026-04-25 17:35 | 38.76548 | -9.13684 | 349 ft | 2 kts | 239° |
| 2026-04-25 17:35 | 38.76551 | -9.13673 | 349 ft | 1 kts | 257° |
| 2026-04-25 17:36 | 38.76552 | -9.13665 | 349 ft | 0 kts | 259° |
| 2026-04-25 17:38 | 38.76552 | -9.13667 | 349 ft | 2 kts | 259° |
| 2026-04-25 17:39 | 38.76543 | -9.13726 | 348 ft | 12 kts | 259° |
| 2026-04-25 17:39 | 38.76523 | -9.13840 | 347 ft | 11 kts | 257° |
| 2026-04-25 17:39 | 38.76515 | -9.13910 | 346 ft | 5 kts | 290° |
| 2026-04-25 17:39 | 38.76517 | -9.13913 | 346 ft | 0 kts | 304° |
| 2026-04-25 17:40 | 38.76517 | -9.13914 | 346 ft | 1 kts | 304° |
| 2026-04-25 17:40 | 38.76550 | -9.13936 | 343 ft | 11 kts | 334° |
| 2026-04-25 17:40 | 38.76571 | -9.13989 | 342 ft | 4 kts | 255° |
| 2026-04-25 17:41 | 38.76537 | -9.14044 | 341 ft | 12 kts | 228° |
| 2026-04-25 17:41 | 38.76498 | -9.14126 | 340 ft | 8 kts | 255° |
| 2026-04-25 17:41 | 38.76499 | -9.14177 | 340 ft | 10 kts | 283° |
| 2026-04-25 17:41 | 38.76507 | -9.14206 | 339 ft | 0 kts | 291° |
| 2026-04-25 17:42 | 38.76508 | -9.14211 | 339 ft | 2 kts | 291° |
| 2026-04-25 17:42 | 38.76525 | -9.14266 | 339 ft | 11 kts | 292° |
| 2026-04-25 17:42 | 38.76568 | -9.14388 | 338 ft | 18 kts | 309° |
| 2026-04-25 17:42 | 38.76645 | -9.14390 | 339 ft | 8 kts | 26° |
| 2026-04-25 17:43 | 38.76654 | -9.14385 | 339 ft | 0 kts | 22° |
| 2026-04-25 17:44 | 38.76780 | -9.14319 | 337 ft | 51 kts | 22° |
| 2026-04-25 17:44 | 38.77300 | -9.14039 | 353 ft | 109 kts | 22° |
| 2026-04-25 17:44 | 38.78165 | -9.13576 | 360 ft | 159 kts | 22° |
| 2026-04-25 17:45 | 38.79272 | -9.12949 | 628 ft | 178 kts | 21° |
| 2026-04-25 17:45 | 38.80001 | -9.12526 | 1136 ft | 173 kts | 21° |
| 2026-04-25 17:45 | 38.81370 | -9.11726 | 2079 ft | 164 kts | 20° |
| 2026-04-25 17:45 | 38.82450 | -9.11078 | 2322 ft | 180 kts | 26° |
| 2026-04-25 17:46 | 38.83550 | -9.10252 | 2680 ft | 189 kts | 30° |
| 2026-04-25 17:46 | 38.84685 | -9.09308 | 2972 ft | 202 kts | 32° |
| 2026-04-25 17:46 | 38.85896 | -9.08305 | 3225 ft | 219 kts | 31° |
| 2026-04-25 17:46 | 38.87215 | -9.07143 | 3484 ft | 237 kts | 40° |
| 2026-04-25 17:47 | 38.88270 | -9.05499 | 3998 ft | 244 kts | 61° |
| 2026-04-25 17:47 | 38.88840 | -9.03423 | 4428 ft | 257 kts | 78° |
| 2026-04-25 17:47 | 38.88706 | -9.01099 | 4857 ft | 270 kts | 107° |
| 2026-04-25 17:47 | 38.87894 | -8.98956 | 5498 ft | 273 kts | 123° |
| 2026-04-25 17:48 | 38.84524 | -8.96889 | 6665 ft | 287 kts | 182° |
| 2026-04-25 17:48 | 38.82557 | -8.97412 | 7266 ft | 290 kts | 195° |
| 2026-04-25 17:48 | 38.80623 | -8.98188 | 7819 ft | 293 kts | 196° |
| 2026-04-25 17:49 | 38.78690 | -8.98978 | 8452 ft | 293 kts | 196° |
| 2026-04-25 17:49 | 38.76740 | -8.99753 | 9014 ft | 296 kts | 195° |
| 2026-04-25 17:49 | 38.74773 | -9.00515 | 9621 ft | 297 kts | 195° |
| 2026-04-25 17:49 | 38.72791 | -9.01273 | 10146 ft | 300 kts | 195° |
| 2026-04-25 17:50 | 38.70758 | -9.02044 | 10437 ft | 313 kts | 195° |
| 2026-04-25 17:50 | 38.68602 | -9.02860 | 10637 ft | 329 kts | 195° |
| 2026-04-25 17:50 | 38.66362 | -9.03707 | 10867 ft | 343 kts | 195° |
| 2026-04-25 17:50 | 38.64026 | -9.04591 | 11066 ft | 358 kts | 195° |
| 2026-04-25 17:51 | 38.61589 | -9.05514 | 11265 ft | 373 kts | 195° |
| 2026-04-25 17:51 | 38.59058 | -9.06473 | 11464 ft | 387 kts | 195° |
| 2026-04-25 17:51 | 38.56430 | -9.07467 | 11595 ft | 402 kts | 195° |
| 2026-04-25 17:51 | 38.53717 | -9.08492 | 11879 ft | 412 kts | 195° |
| 2026-04-25 17:52 | 38.50937 | -9.09544 | 12389 ft | 416 kts | 195° |
| 2026-04-25 17:52 | 38.49092 | -9.10242 | 12733 ft | 419 kts | 195° |
| 2026-04-25 17:52 | 38.45347 | -9.11657 | 13449 ft | 422 kts | 195° |
| 2026-04-25 17:52 | 38.42521 | -9.12723 | 13928 ft | 428 kts | 195° |
| 2026-04-25 17:53 | 38.39669 | -9.13798 | 14588 ft | 430 kts | 195° |
| 2026-04-25 17:53 | 38.36790 | -9.14882 | 15157 ft | 434 kts | 195° |
| 2026-04-25 17:53 | 38.33890 | -9.15973 | 15722 ft | 437 kts | 195° |
| 2026-04-25 17:53 | 38.30947 | -9.17080 | 16234 ft | 441 kts | 195° |
| 2026-04-25 17:54 | 38.28002 | -9.18186 | 16754 ft | 444 kts | 195° |
| 2026-04-25 17:54 | 38.25035 | -9.19300 | 17239 ft | 448 kts | 195° |
| 2026-04-25 17:54 | 38.22039 | -9.20424 | 17745 ft | 451 kts | 195° |
| 2026-04-25 17:54 | 38.19023 | -9.21554 | 18227 ft | 454 kts | 196° |
| 2026-04-25 17:55 | 38.15981 | -9.22693 | 18676 ft | 458 kts | 196° |
| 2026-04-25 17:55 | 38.12918 | -9.23839 | 19155 ft | 461 kts | 196° |
| 2026-04-25 17:55 | 38.09809 | -9.25001 | 19575 ft | 466 kts | 196° |
| 2026-04-25 17:55 | 38.06698 | -9.26161 | 20019 ft | 470 kts | 196° |
| 2026-04-25 17:56 | 38.03563 | -9.27330 | 20521 ft | 472 kts | 196° |
| 2026-04-25 17:56 | 38.00410 | -9.28505 | 20970 ft | 475 kts | 196° |
| 2026-04-25 17:56 | 37.97237 | -9.29687 | 21406 ft | 478 kts | 197° |
| 2026-04-25 17:56 | 37.94044 | -9.30874 | 21865 ft | 481 kts | 197° |
| 2026-04-25 17:57 | 37.90831 | -9.32069 | 22259 ft | 484 kts | 197° |
| 2026-04-25 17:57 | 37.87564 | -9.33282 | 22673 ft | 488 kts | 197° |
| 2026-04-25 17:57 | 37.84303 | -9.34492 | 23055 ft | 491 kts | 197° |
| 2026-04-25 17:57 | 37.82124 | -9.35300 | 23316 ft | 493 kts | 197° |
| 2026-04-25 17:58 | 37.77722 | -9.36931 | 23834 ft | 496 kts | 197° |
| 2026-04-25 17:58 | 37.74406 | -9.38159 | 24263 ft | 498 kts | 197° |
| 2026-04-25 17:58 | 37.71095 | -9.39383 | 24837 ft | 495 kts | 197° |
| 2026-04-25 17:58 | 37.67817 | -9.40593 | 25561 ft | 490 kts | 197° |
| 2026-04-25 17:59 | 37.64536 | -9.41804 | 26103 ft | 489 kts | 197° |
| 2026-04-25 17:59 | 37.61287 | -9.43002 | 26623 ft | 487 kts | 197° |
| 2026-04-25 17:59 | 37.58051 | -9.44194 | 27152 ft | 485 kts | 197° |
| 2026-04-25 17:59 | 37.54830 | -9.45379 | 27667 ft | 483 kts | 198° |
| 2026-04-25 18:00 | 37.51617 | -9.46560 | 28121 ft | 482 kts | 198° |
| 2026-04-25 18:00 | 37.48416 | -9.47737 | 28617 ft | 479 kts | 198° |
| 2026-04-25 18:00 | 37.45224 | -9.48908 | 29050 ft | 478 kts | 198° |
| 2026-04-25 18:00 | 37.42020 | -9.50083 | 29473 ft | 477 kts | 198° |
| 2026-04-25 18:01 | 37.38841 | -9.51248 | 29870 ft | 476 kts | 198° |
| 2026-04-25 18:01 | 37.35668 | -9.52409 | 30268 ft | 475 kts | 198° |
| 2026-04-25 18:01 | 37.32506 | -9.53565 | 30658 ft | 474 kts | 198° |
| 2026-04-25 18:01 | 37.29346 | -9.54720 | 31002 ft | 473 kts | 198° |
| 2026-04-25 18:02 | 37.26154 | -9.55885 | 31034 ft | 474 kts | 198° |
| 2026-04-25 18:02 | 37.19826 | -9.58194 | 31031 ft | 471 kts | 198° |
| 2026-04-25 18:03 | 37.13538 | -9.60486 | 31042 ft | 469 kts | 198° |
| 2026-04-25 18:03 | 37.07272 | -9.62813 | 31040 ft | 469 kts | 199° |
| 2026-04-25 18:04 | 37.01013 | -9.65124 | 31047 ft | 469 kts | 198° |
| 2026-04-25 18:04 | 36.94711 | -9.67376 | 31045 ft | 469 kts | 198° |
| 2026-04-25 18:05 | 36.88434 | -9.69613 | 31046 ft | 469 kts | 198° |
| 2026-04-25 18:05 | 36.82150 | -9.71864 | 31049 ft | 473 kts | 198° |
| 2026-04-25 18:06 | 36.75766 | -9.74156 | 31046 ft | 477 kts | 198° |
| 2026-04-25 18:06 | 36.69411 | -9.76437 | 31048 ft | 475 kts | 198° |
| 2026-04-25 18:07 | 36.63060 | -9.78715 | 31046 ft | 475 kts | 198° |
| 2026-04-25 18:07 | 36.56730 | -9.80982 | 31045 ft | 474 kts | 198° |
| 2026-04-25 18:08 | 36.50368 | -9.83257 | 31039 ft | 475 kts | 198° |
| 2026-04-25 18:08 | 36.44020 | -9.85524 | 31039 ft | 476 kts | 198° |
| 2026-04-25 18:09 | 36.37667 | -9.87789 | 31042 ft | 476 kts | 198° |
| 2026-04-25 18:09 | 36.31292 | -9.90058 | 31049 ft | 474 kts | 198° |
| 2026-04-25 18:10 | 36.24966 | -9.92305 | 31052 ft | 474 kts | 198° |
| 2026-04-25 18:10 | 36.18641 | -9.94548 | 31055 ft | 473 kts | 197° |
| 2026-04-25 18:11 | 36.12322 | -9.96786 | 31054 ft | 473 kts | 198° |
| 2026-04-25 18:11 | 36.05982 | -9.99027 | 31055 ft | 473 kts | 198° |
| 2026-04-25 18:12 | 35.99707 | -10.01377 | 31055 ft | 472 kts | 202° |
| 2026-04-25 18:12 | 35.93853 | -10.04953 | 31056 ft | 470 kts | 214° |
| 2026-04-25 18:13 | 35.88483 | -10.09563 | 31052 ft | 469 kts | 218° |
| 2026-04-25 18:13 | 35.83319 | -10.14429 | 31052 ft | 468 kts | 219° |
| 2026-04-25 18:14 | 35.75609 | -10.21741 | 31052 ft | 467 kts | 219° |
| 2026-04-25 18:14 | 35.70432 | -10.26584 | 31050 ft | 466 kts | 219° |
| 2026-04-25 18:15 | 35.65267 | -10.31376 | 31050 ft | 467 kts | 219° |
| 2026-04-25 18:15 | 35.60087 | -10.36159 | 31049 ft | 467 kts | 218° |
| 2026-04-25 18:16 | 35.54904 | -10.40927 | 31049 ft | 466 kts | 218° |
| 2026-04-25 18:17 | 35.47113 | -10.48078 | 31049 ft | 466 kts | 218° |
| 2026-04-25 18:17 | 35.41935 | -10.52820 | 31048 ft | 466 kts | 218° |
| 2026-04-25 18:18 | 35.36757 | -10.57555 | 31049 ft | 465 kts | 218° |
| 2026-04-25 18:18 | 35.31562 | -10.62297 | 31049 ft | 465 kts | 218° |
| 2026-04-25 18:19 | 35.26389 | -10.67012 | 31050 ft | 465 kts | 218° |
| 2026-04-25 18:19 | 35.21210 | -10.71725 | 31050 ft | 465 kts | 218° |
| 2026-04-25 18:20 | 35.16007 | -10.76452 | 31052 ft | 465 kts | 217° |
| 2026-04-25 18:20 | 35.10831 | -10.81149 | 31051 ft | 465 kts | 217° |
| 2026-04-25 18:21 | 35.05658 | -10.85833 | 31053 ft | 464 kts | 217° |
| 2026-04-25 18:21 | 35.00490 | -10.90505 | 31054 ft | 464 kts | 217° |
| 2026-04-25 18:22 | 34.95309 | -10.95180 | 31052 ft | 463 kts | 217° |
| 2026-04-25 18:22 | 34.90132 | -10.99846 | 31050 ft | 464 kts | 217° |
| 2026-04-25 18:23 | 34.84956 | -11.04504 | 31053 ft | 463 kts | 217° |
| 2026-04-25 18:23 | 34.79758 | -11.09174 | 31051 ft | 464 kts | 217° |
| 2026-04-25 18:24 | 34.74567 | -11.13829 | 31052 ft | 464 kts | 217° |
| 2026-04-25 18:24 | 34.69522 | -11.18348 | 31048 ft | 464 kts | 217° |
| 2026-04-25 18:25 | 34.64402 | -11.22927 | 31053 ft | 463 kts | 217° |
| 2026-04-25 18:25 | 34.59207 | -11.27579 | 31053 ft | 464 kts | 217° |
| 2026-04-25 18:26 | 34.54041 | -11.32216 | 31050 ft | 463 kts | 217° |
| 2026-04-25 18:26 | 34.48870 | -11.36855 | 31050 ft | 463 kts | 217° |
| 2026-04-25 18:27 | 34.43677 | -11.41500 | 31051 ft | 464 kts | 217° |
| 2026-04-25 18:27 | 34.38492 | -11.46130 | 31052 ft | 464 kts | 217° |
| 2026-04-25 18:28 | 34.33308 | -11.50752 | 31054 ft | 465 kts | 217° |
| 2026-04-25 18:28 | 34.28129 | -11.55364 | 31049 ft | 463 kts | 217° |
| 2026-04-25 18:29 | 34.20345 | -11.62282 | 31051 ft | 463 kts | 217° |
| 2026-04-25 18:30 | 34.09987 | -11.71458 | 31052 ft | 463 kts | 216° |
| 2026-04-25 18:30 | 34.04780 | -11.76062 | 31049 ft | 464 kts | 216° |
| 2026-04-25 18:31 | 33.99579 | -11.80656 | 31050 ft | 464 kts | 216° |
| 2026-04-25 18:31 | 33.94372 | -11.85247 | 31053 ft | 465 kts | 216° |
| 2026-04-25 18:32 | 33.89140 | -11.89850 | 31047 ft | 466 kts | 215° |
| 2026-04-25 18:32 | 33.83923 | -11.94438 | 31052 ft | 465 kts | 215° |
| 2026-04-25 18:33 | 33.78706 | -11.99016 | 31052 ft | 465 kts | 215° |
| 2026-04-25 18:33 | 33.73492 | -12.03586 | 31050 ft | 465 kts | 215° |
| 2026-04-25 18:34 | 33.68242 | -12.08177 | 31052 ft | 465 kts | 215° |
| 2026-04-25 18:34 | 33.63017 | -12.12739 | 31052 ft | 465 kts | 215° |
| 2026-04-25 18:35 | 33.57784 | -12.17299 | 31050 ft | 466 kts | 215° |
| 2026-04-25 18:35 | 33.52528 | -12.21870 | 31048 ft | 466 kts | 215° |
| 2026-04-25 18:36 | 33.47290 | -12.26423 | 31049 ft | 466 kts | 215° |
| 2026-04-25 18:36 | 33.42063 | -12.30962 | 31052 ft | 466 kts | 215° |
| 2026-04-25 18:37 | 33.36825 | -12.35501 | 31049 ft | 465 kts | 215° |
| 2026-04-25 18:37 | 33.31568 | -12.40049 | 31047 ft | 466 kts | 215° |
| 2026-04-25 18:38 | 33.26319 | -12.44582 | 31047 ft | 466 kts | 215° |
| 2026-04-25 18:38 | 33.21073 | -12.49106 | 31050 ft | 466 kts | 215° |
| 2026-04-25 18:39 | 33.15806 | -12.53642 | 31050 ft | 467 kts | 215° |
| 2026-04-25 18:39 | 33.10528 | -12.58179 | 31048 ft | 468 kts | 215° |
| 2026-04-25 18:40 | 33.05259 | -12.62702 | 31049 ft | 467 kts | 215° |
| 2026-04-25 18:40 | 32.99996 | -12.67213 | 31047 ft | 467 kts | 215° |
| 2026-04-25 18:41 | 32.94711 | -12.71735 | 31047 ft | 467 kts | 215° |
| 2026-04-25 18:41 | 32.89451 | -12.76231 | 31048 ft | 466 kts | 214° |
| 2026-04-25 18:42 | 32.85046 | -12.79990 | 31050 ft | 468 kts | 215° |
| 2026-04-25 18:42 | 32.78877 | -12.85235 | 31051 ft | 468 kts | 214° |
| 2026-04-25 18:43 | 32.73590 | -12.89709 | 31049 ft | 467 kts | 214° |
| 2026-04-25 18:43 | 32.68319 | -12.94163 | 31051 ft | 466 kts | 214° |
| 2026-04-25 18:44 | 32.63038 | -12.98621 | 31056 ft | 467 kts | 214° |
| 2026-04-25 18:44 | 32.57733 | -13.03094 | 31054 ft | 467 kts | 214° |
| 2026-04-25 18:45 | 32.52448 | -13.07544 | 31057 ft | 466 kts | 214° |
| 2026-04-25 18:45 | 32.47169 | -13.11983 | 31057 ft | 465 kts | 214° |
| 2026-04-25 18:46 | 32.41878 | -13.16424 | 31061 ft | 465 kts | 214° |
| 2026-04-25 18:46 | 32.36605 | -13.20844 | 31061 ft | 465 kts | 214° |
| 2026-04-25 18:47 | 32.31334 | -13.25256 | 31060 ft | 465 kts | 215° |
| 2026-04-25 18:47 | 32.26051 | -13.29671 | 31062 ft | 465 kts | 215° |
| 2026-04-25 18:48 | 32.20770 | -13.34079 | 31063 ft | 464 kts | 215° |
| 2026-04-25 18:48 | 32.15502 | -13.38470 | 31064 ft | 464 kts | 215° |
| 2026-04-25 18:49 | 32.10237 | -13.42851 | 31066 ft | 464 kts | 215° |
| 2026-04-25 18:49 | 32.04944 | -13.47250 | 31064 ft | 464 kts | 215° |
| 2026-04-25 18:50 | 31.99675 | -13.51621 | 31066 ft | 463 kts | 215° |
| 2026-04-25 18:50 | 31.94412 | -13.55982 | 31063 ft | 462 kts | 215° |
| 2026-04-25 18:51 | 31.90020 | -13.59616 | 31064 ft | 464 kts | 215° |
| 2026-04-25 18:51 | 31.83865 | -13.64702 | 31064 ft | 463 kts | 215° |
| 2026-04-25 18:52 | 31.78593 | -13.69051 | 31064 ft | 463 kts | 215° |
| 2026-04-25 18:52 | 31.73318 | -13.73398 | 31066 ft | 463 kts | 215° |
| 2026-04-25 18:53 | 31.68018 | -13.77758 | 31070 ft | 463 kts | 215° |
| 2026-04-25 18:53 | 31.62712 | -13.82117 | 31067 ft | 463 kts | 215° |
| 2026-04-25 18:54 | 31.54800 | -13.88606 | 31070 ft | 464 kts | 215° |
| 2026-04-25 18:55 | 31.49491 | -13.92952 | 31064 ft | 463 kts | 215° |
| 2026-04-25 18:55 | 31.44177 | -13.97296 | 31067 ft | 464 kts | 215° |
| 2026-04-25 18:56 | 31.38868 | -14.01629 | 31063 ft | 464 kts | 215° |
| 2026-04-25 18:56 | 31.33570 | -14.05948 | 31066 ft | 465 kts | 215° |
| 2026-04-25 18:57 | 31.28252 | -14.10282 | 31064 ft | 464 kts | 215° |
| 2026-04-25 18:57 | 31.22968 | -14.14606 | 31067 ft | 464 kts | 215° |
| 2026-04-25 18:58 | 31.17670 | -14.18944 | 31060 ft | 465 kts | 215° |
| 2026-04-25 18:58 | 31.09712 | -14.25448 | 31063 ft | 464 kts | 215° |
| 2026-04-25 18:59 | 30.99145 | -14.34058 | 31064 ft | 464 kts | 216° |
| 2026-04-25 19:00 | 30.91123 | -14.40376 | 31061 ft | 464 kts | 211° |
| 2026-04-25 19:01 | 30.82190 | -14.44690 | 31061 ft | 465 kts | 199° |
| 2026-04-25 19:01 | 30.76018 | -14.46905 | 31059 ft | 465 kts | 198° |
| 2026-04-25 19:02 | 30.66702 | -14.50190 | 31056 ft | 465 kts | 199° |
| 2026-04-25 19:03 | 30.58445 | -14.53170 | 31059 ft | 466 kts | 199° |
| 2026-04-25 19:03 | 30.51208 | -14.55812 | 31055 ft | 467 kts | 199° |
| 2026-04-25 19:04 | 30.41914 | -14.59215 | 31053 ft | 468 kts | 199° |
| 2026-04-25 19:05 | 30.29479 | -14.63760 | 31054 ft | 468 kts | 200° |
| 2026-04-25 19:06 | 30.23251 | -14.66033 | 31051 ft | 469 kts | 199° |
| 2026-04-25 19:06 | 30.13919 | -14.69432 | 31051 ft | 470 kts | 200° |
| 2026-04-25 19:07 | 30.04556 | -14.72835 | 31052 ft | 469 kts | 200° |
| 2026-04-25 19:08 | 29.95205 | -14.76228 | 31051 ft | 471 kts | 200° |
| 2026-04-25 19:09 | 29.83713 | -14.80386 | 31046 ft | 471 kts | 200° |
| 2026-04-25 19:10 | 29.73292 | -14.84149 | 31051 ft | 470 kts | 200° |
| 2026-04-25 19:10 | 29.67059 | -14.86396 | 31055 ft | 470 kts | 200° |
| 2026-04-25 19:11 | 29.60808 | -14.88646 | 31058 ft | 470 kts | 200° |
| 2026-04-25 19:11 | 29.54575 | -14.90887 | 31057 ft | 470 kts | 200° |
| 2026-04-25 19:12 | 29.48326 | -14.93133 | 31050 ft | 471 kts | 201° |
| 2026-04-25 19:12 | 29.42047 | -14.95385 | 31046 ft | 472 kts | 201° |
| 2026-04-25 19:13 | 29.35795 | -14.97624 | 31048 ft | 470 kts | 201° |
| 2026-04-25 19:13 | 29.29556 | -14.99855 | 31045 ft | 470 kts | 201° |
| 2026-04-25 19:14 | 29.23312 | -15.02085 | 31046 ft | 470 kts | 201° |
| 2026-04-25 19:14 | 29.17040 | -15.04322 | 31043 ft | 471 kts | 201° |
| 2026-04-25 19:15 | 29.10788 | -15.06551 | 31041 ft | 472 kts | 201° |
| 2026-04-25 19:15 | 29.04520 | -15.08781 | 31045 ft | 472 kts | 201° |
| 2026-04-25 19:15 | 29.01373 | -15.09901 | 31315 ft | 472 kts | 201° |
| 2026-04-25 19:16 | 28.98244 | -15.11010 | 31948 ft | 464 kts | 202° |
| 2026-04-25 19:16 | 28.95177 | -15.12095 | 32392 ft | 461 kts | 202° |
| 2026-04-25 19:16 | 28.92120 | -15.13178 | 32719 ft | 460 kts | 202° |
| 2026-04-25 19:16 | 28.89061 | -15.14263 | 32989 ft | 460 kts | 202° |
| 2026-04-25 19:17 | 28.86009 | -15.15346 | 33291 ft | 459 kts | 202° |
| 2026-04-25 19:17 | 28.82945 | -15.16432 | 33536 ft | 460 kts | 202° |
| 2026-04-25 19:17 | 28.79856 | -15.17526 | 33829 ft | 459 kts | 202° |
| 2026-04-25 19:17 | 28.76750 | -15.18624 | 34159 ft | 457 kts | 203° |
| 2026-04-25 19:18 | 28.73701 | -15.19702 | 34468 ft | 455 kts | 203° |
| 2026-04-25 19:18 | 28.70651 | -15.20779 | 34750 ft | 454 kts | 203° |
| 2026-04-25 19:18 | 28.67619 | -15.21850 | 34994 ft | 453 kts | 203° |
| 2026-04-25 19:19 | 28.61542 | -15.23998 | 35041 ft | 455 kts | 203° |
| 2026-04-25 19:19 | 28.55465 | -15.26138 | 35041 ft | 452 kts | 203° |
| 2026-04-25 19:20 | 28.49455 | -15.28254 | 35036 ft | 453 kts | 203° |
| 2026-04-25 19:20 | 28.43423 | -15.30376 | 35034 ft | 453 kts | 203° |
| 2026-04-25 19:21 | 28.37403 | -15.32489 | 35036 ft | 452 kts | 203° |
| 2026-04-25 19:21 | 28.28389 | -15.35648 | 35034 ft | 451 kts | 203° |
| 2026-04-25 19:22 | 28.22394 | -15.37746 | 35037 ft | 450 kts | 203° |
| 2026-04-25 19:23 | 28.13398 | -15.40891 | 35043 ft | 450 kts | 204° |
| 2026-04-25 19:23 | 28.04238 | -15.43425 | 35054 ft | 457 kts | 195° |
| 2026-04-25 19:24 | 27.97912 | -15.44267 | 35064 ft | 459 kts | 192° |
| 2026-04-25 19:25 | 27.85184 | -15.45638 | 35045 ft | 458 kts | 192° |
| 2026-04-25 19:25 | 27.78847 | -15.46354 | 35039 ft | 459 kts | 193° |
| 2026-04-25 19:26 | 27.72494 | -15.47094 | 35033 ft | 459 kts | 193° |
| 2026-04-25 19:26 | 27.66105 | -15.47845 | 35033 ft | 459 kts | 193° |
| 2026-04-25 19:27 | 27.60828 | -15.48466 | 35031 ft | 458 kts | 193° |
| 2026-04-25 19:27 | 27.53419 | -15.49343 | 35034 ft | 459 kts | 193° |
| 2026-04-25 19:28 | 27.47063 | -15.50095 | 35034 ft | 456 kts | 193° |
| 2026-04-25 19:28 | 27.40748 | -15.50841 | 35032 ft | 457 kts | 194° |
| 2026-04-25 19:29 | 27.34424 | -15.51588 | 35030 ft | 457 kts | 194° |
| 2026-04-25 19:29 | 27.28102 | -15.52332 | 35032 ft | 456 kts | 194° |
| 2026-04-25 19:30 | 27.21776 | -15.53075 | 35029 ft | 455 kts | 194° |
| 2026-04-25 19:30 | 27.15471 | -15.53817 | 35030 ft | 456 kts | 194° |
| 2026-04-25 19:31 | 27.09159 | -15.54559 | 35030 ft | 456 kts | 194° |
| 2026-04-25 19:31 | 27.02841 | -15.55298 | 35032 ft | 454 kts | 194° |
| 2026-04-25 19:32 | 26.96533 | -15.56038 | 35030 ft | 455 kts | 194° |
| 2026-04-25 19:32 | 26.91296 | -15.56652 | 35029 ft | 456 kts | 194° |
| 2026-04-25 19:33 | 26.83959 | -15.57508 | 35027 ft | 454 kts | 195° |
| 2026-04-25 19:33 | 26.77659 | -15.58244 | 35025 ft | 454 kts | 195° |
| 2026-04-25 19:34 | 26.71369 | -15.58978 | 35025 ft | 453 kts | 195° |
| 2026-04-25 19:34 | 26.65074 | -15.59712 | 35026 ft | 454 kts | 195° |
| 2026-04-25 19:35 | 26.58789 | -15.60441 | 35021 ft | 452 kts | 195° |
| 2026-04-25 19:35 | 26.52520 | -15.61170 | 35023 ft | 453 kts | 195° |
| 2026-04-25 19:36 | 26.46238 | -15.61899 | 35027 ft | 453 kts | 195° |
| 2026-04-25 19:36 | 26.39958 | -15.62629 | 35023 ft | 454 kts | 195° |
| 2026-04-25 19:37 | 26.33662 | -15.63357 | 35016 ft | 451 kts | 195° |
| 2026-04-25 19:37 | 26.27420 | -15.64078 | 35015 ft | 451 kts | 195° |
| 2026-04-25 19:38 | 26.21193 | -15.64797 | 35016 ft | 449 kts | 195° |
| 2026-04-25 19:38 | 26.14940 | -15.65523 | 35012 ft | 452 kts | 195° |
| 2026-04-25 19:39 | 26.08684 | -15.66247 | 35008 ft | 452 kts | 195° |
| 2026-04-25 19:39 | 26.02448 | -15.66962 | 35007 ft | 450 kts | 195° |
| 2026-04-25 19:40 | 25.96203 | -15.67684 | 35004 ft | 453 kts | 195° |
| 2026-04-25 19:40 | 25.89915 | -15.68406 | 35004 ft | 450 kts | 195° |
| 2026-04-25 19:41 | 25.83675 | -15.69120 | 35006 ft | 452 kts | 195° |
| 2026-04-25 19:41 | 25.78442 | -15.69721 | 35005 ft | 450 kts | 195° |
| 2026-04-25 19:42 | 25.71142 | -15.70557 | 35005 ft | 451 kts | 195° |
| 2026-04-25 19:42 | 25.64902 | -15.71270 | 35006 ft | 451 kts | 196° |
| 2026-04-25 19:43 | 25.58659 | -15.71985 | 35003 ft | 451 kts | 195° |
| 2026-04-25 19:43 | 25.52402 | -15.72704 | 35008 ft | 453 kts | 195° |
| 2026-04-25 19:44 | 25.46125 | -15.73418 | 35000 ft | 452 kts | 195° |
| 2026-04-25 19:44 | 25.39875 | -15.74130 | 35005 ft | 451 kts | 195° |
| 2026-04-25 19:45 | 25.33620 | -15.74844 | 35004 ft | 453 kts | 195° |
| 2026-04-25 19:45 | 25.28512 | -15.75424 | 35003 ft | 451 kts | 196° |
| 2026-04-25 19:46 | 25.22611 | -15.76094 | 35005 ft | 452 kts | 195° |
| 2026-04-25 19:46 | 25.16351 | -15.76807 | 34999 ft | 451 kts | 195° |
| 2026-04-25 19:47 | 25.10101 | -15.77515 | 35005 ft | 453 kts | 196° |
| 2026-04-25 19:47 | 25.03821 | -15.78226 | 35006 ft | 452 kts | 196° |
| 2026-04-25 19:48 | 24.97545 | -15.78936 | 34999 ft | 452 kts | 196° |
| 2026-04-25 19:48 | 24.91298 | -15.79605 | 35006 ft | 451 kts | 195° |
| 2026-04-25 19:49 | 24.86058 | -15.80161 | 35001 ft | 452 kts | 196° |
| 2026-04-25 19:49 | 24.78756 | -15.80935 | 34991 ft | 451 kts | 196° |
| 2026-04-25 19:50 | 24.69377 | -15.81935 | 34998 ft | 453 kts | 196° |
| 2026-04-25 19:51 | 24.63079 | -15.82606 | 34983 ft | 452 kts | 196° |
| 2026-04-25 19:51 | 24.56832 | -15.83267 | 34987 ft | 449 kts | 196° |
| 2026-04-25 19:52 | 24.50614 | -15.83927 | 34986 ft | 450 kts | 196° |
| 2026-04-25 19:52 | 24.44366 | -15.84594 | 34994 ft | 451 kts | 196° |
| 2026-04-25 19:53 | 24.38099 | -15.85259 | 34990 ft | 450 kts | 196° |
| 2026-04-25 19:53 | 24.31865 | -15.85920 | 34995 ft | 449 kts | 196° |
| 2026-04-25 19:54 | 24.25641 | -15.86580 | 34987 ft | 451 kts | 196° |
| 2026-04-25 19:54 | 24.19360 | -15.87249 | 34990 ft | 450 kts | 196° |
| 2026-04-25 19:55 | 24.13116 | -15.87906 | 34985 ft | 450 kts | 196° |
| 2026-04-25 19:55 | 24.06887 | -15.88563 | 34981 ft | 448 kts | 196° |
| 2026-04-25 19:56 | 24.00651 | -15.89223 | 34979 ft | 449 kts | 196° |
| 2026-04-25 19:56 | 23.94411 | -15.89879 | 34978 ft | 449 kts | 196° |
| 2026-04-25 19:57 | 23.88157 | -15.90540 | 34978 ft | 449 kts | 197° |
| 2026-04-25 19:57 | 23.81922 | -15.91193 | 34970 ft | 450 kts | 197° |
| 2026-04-25 19:58 | 23.75691 | -15.92020 | 34965 ft | 443 kts | 201° |
| 2026-04-25 19:58 | 23.69813 | -15.93713 | 34972 ft | 430 kts | 209° |
| 2026-04-25 19:59 | 23.64204 | -15.95903 | 34961 ft | 428 kts | 211° |
| 2026-04-25 19:59 | 23.58635 | -15.98197 | 34968 ft | 427 kts | 211° |
| 2026-04-25 20:00 | 23.53077 | -16.00465 | 34957 ft | 427 kts | 211° |
| 2026-04-25 20:00 | 23.47482 | -16.02726 | 34962 ft | 429 kts | 211° |
| 2026-04-25 20:01 | 23.39094 | -16.06074 | 34962 ft | 425 kts | 211° |
| 2026-04-25 20:01 | 23.33504 | -16.08298 | 34952 ft | 427 kts | 211° |
| 2026-04-25 20:02 | 23.27895 | -16.10531 | 34956 ft | 428 kts | 211° |
| 2026-04-25 20:02 | 23.22296 | -16.12751 | 34957 ft | 428 kts | 211° |
| 2026-04-25 20:03 | 23.16682 | -16.14979 | 34949 ft | 426 kts | 211° |
| 2026-04-25 20:03 | 23.11102 | -16.17190 | 34954 ft | 427 kts | 211° |
| 2026-04-25 20:04 | 23.05508 | -16.19405 | 34944 ft | 428 kts | 211° |
| 2026-04-25 20:04 | 22.99908 | -16.21618 | 34949 ft | 427 kts | 211° |
| 2026-04-25 20:05 | 22.94297 | -16.23836 | 34956 ft | 428 kts | 211° |
| 2026-04-25 20:05 | 22.88708 | -16.26043 | 34945 ft | 426 kts | 211° |
| 2026-04-25 20:06 | 22.83123 | -16.28247 | 34947 ft | 429 kts | 211° |
| 2026-04-25 20:06 | 22.77499 | -16.30465 | 34939 ft | 428 kts | 211° |
| 2026-04-25 20:07 | 22.71902 | -16.32666 | 34932 ft | 427 kts | 211° |
| 2026-04-25 20:07 | 22.66293 | -16.34875 | 34932 ft | 430 kts | 211° |
| 2026-04-25 20:08 | 22.60686 | -16.37076 | 34928 ft | 426 kts | 211° |
| 2026-04-25 20:08 | 22.55075 | -16.39279 | 34925 ft | 429 kts | 211° |
| 2026-04-25 20:09 | 22.49465 | -16.41484 | 34921 ft | 430 kts | 211° |
| 2026-04-25 20:09 | 22.43868 | -16.43676 | 34922 ft | 427 kts | 211° |
| 2026-04-25 20:10 | 22.38238 | -16.45883 | 34912 ft | 430 kts | 211° |
| 2026-04-25 20:10 | 22.32619 | -16.48083 | 34922 ft | 429 kts | 211° |
| 2026-04-25 20:11 | 22.27002 | -16.50279 | 34927 ft | 429 kts | 211° |
| 2026-04-25 20:11 | 22.21380 | -16.52475 | 34925 ft | 429 kts | 211° |
| 2026-04-25 20:12 | 22.15743 | -16.54674 | 34930 ft | 430 kts | 211° |
| 2026-04-25 20:12 | 22.11074 | -16.56495 | 34931 ft | 428 kts | 211° |
| 2026-04-25 20:13 | 22.04520 | -16.59050 | 34930 ft | 430 kts | 211° |
| 2026-04-25 20:13 | 21.98854 | -16.61261 | 34929 ft | 432 kts | 211° |
| 2026-04-25 20:14 | 21.93215 | -16.63451 | 34927 ft | 430 kts | 211° |
| 2026-04-25 20:14 | 21.87578 | -16.65640 | 34935 ft | 431 kts | 210° |
| 2026-04-25 20:15 | 21.81936 | -16.67849 | 34921 ft | 429 kts | 211° |
| 2026-04-25 20:15 | 21.76308 | -16.70110 | 34914 ft | 430 kts | 211° |
| 2026-04-25 20:16 | 21.70699 | -16.72378 | 34918 ft | 430 kts | 211° |
| 2026-04-25 20:16 | 21.65066 | -16.74653 | 34918 ft | 432 kts | 211° |
| 2026-04-25 20:17 | 21.59424 | -16.76917 | 34921 ft | 432 kts | 211° |
| 2026-04-25 20:17 | 21.53805 | -16.79170 | 34921 ft | 431 kts | 211° |
| 2026-04-25 20:18 | 21.48155 | -16.81437 | 34913 ft | 433 kts | 211° |
| 2026-04-25 20:18 | 21.42519 | -16.83691 | 34912 ft | 430 kts | 210° |
| 2026-04-25 20:19 | 21.36880 | -16.85945 | 34910 ft | 431 kts | 211° |
| 2026-04-25 20:19 | 21.31247 | -16.88191 | 34903 ft | 433 kts | 210° |
| 2026-04-25 20:20 | 21.25564 | -16.90394 | 34901 ft | 435 kts | 210° |
| 2026-04-25 20:20 | 21.19866 | -16.92572 | 34904 ft | 432 kts | 210° |
| 2026-04-25 20:21 | 21.14182 | -16.94750 | 34914 ft | 435 kts | 210° |
| 2026-04-25 20:21 | 21.08489 | -16.96933 | 34921 ft | 434 kts | 210° |
| 2026-04-25 20:22 | 21.03746 | -16.98752 | 34916 ft | 434 kts | 210° |
| 2026-04-25 20:22 | 20.97114 | -17.01295 | 34913 ft | 433 kts | 210° |
| 2026-04-25 20:23 | 20.91322 | -17.03210 | 34912 ft | 444 kts | 202° |
| 2026-04-25 20:23 | 20.85099 | -17.04160 | 34914 ft | 456 kts | 195° |
| 2026-04-25 20:24 | 20.78715 | -17.04628 | 34911 ft | 457 kts | 193° |
| 2026-04-25 20:24 | 20.72349 | -17.05009 | 34910 ft | 457 kts | 193° |
| 2026-04-25 20:25 | 20.65977 | -17.05419 | 34909 ft | 458 kts | 194° |
| 2026-04-25 20:25 | 20.59592 | -17.05860 | 34910 ft | 459 kts | 194° |
| 2026-04-25 20:26 | 20.53206 | -17.06316 | 34906 ft | 459 kts | 194° |
| 2026-04-25 20:26 | 20.46822 | -17.06783 | 34908 ft | 458 kts | 194° |
| 2026-04-25 20:27 | 20.40455 | -17.07249 | 34906 ft | 459 kts | 193° |
| 2026-04-25 20:27 | 20.34027 | -17.07724 | 34906 ft | 460 kts | 194° |
| 2026-04-25 20:28 | 20.27631 | -17.08192 | 34905 ft | 460 kts | 193° |
| 2026-04-25 20:28 | 20.21235 | -17.08662 | 34902 ft | 460 kts | 193° |
| 2026-04-25 20:29 | 20.14837 | -17.09129 | 34901 ft | 461 kts | 193° |
| 2026-04-25 20:29 | 20.08395 | -17.09601 | 34900 ft | 460 kts | 193° |
| 2026-04-25 20:30 | 20.02000 | -17.10067 | 34897 ft | 462 kts | 193° |
| 2026-04-25 20:30 | 19.95557 | -17.10542 | 34889 ft | 464 kts | 193° |
| 2026-04-25 20:31 | 19.89109 | -17.11009 | 34881 ft | 460 kts | 193° |
| 2026-04-25 20:31 | 19.82700 | -17.11475 | 34878 ft | 462 kts | 193° |
| 2026-04-25 20:32 | 19.76278 | -17.11945 | 34880 ft | 463 kts | 193° |
| 2026-04-25 20:32 | 19.69838 | -17.12415 | 34875 ft | 464 kts | 193° |
| 2026-04-25 20:33 | 19.63381 | -17.12883 | 34878 ft | 462 kts | 193° |
| 2026-04-25 20:33 | 19.58027 | -17.13273 | 34877 ft | 464 kts | 192° |
| 2026-04-25 20:34 | 19.50490 | -17.13822 | 34872 ft | 465 kts | 192° |
| 2026-04-25 20:34 | 19.44005 | -17.14292 | 34880 ft | 462 kts | 192° |
| 2026-04-25 20:35 | 19.37589 | -17.14754 | 34878 ft | 462 kts | 192° |
| 2026-04-25 20:35 | 19.31164 | -17.15221 | 34882 ft | 464 kts | 192° |
| 2026-04-25 20:36 | 19.24720 | -17.15689 | 34880 ft | 462 kts | 192° |
| 2026-04-25 20:36 | 19.18269 | -17.16155 | 34877 ft | 464 kts | 192° |
| 2026-04-25 20:37 | 19.11814 | -17.16624 | 34880 ft | 463 kts | 192° |
| 2026-04-25 20:37 | 19.05378 | -17.17089 | 34877 ft | 465 kts | 192° |
| 2026-04-25 20:38 | 18.98908 | -17.17555 | 34879 ft | 463 kts | 192° |
| 2026-04-25 20:38 | 18.92469 | -17.18018 | 34881 ft | 464 kts | 192° |
| 2026-04-25 20:39 | 18.85996 | -17.18489 | 34887 ft | 466 kts | 192° |
| 2026-04-25 20:39 | 18.80590 | -17.18877 | 34883 ft | 464 kts | 191° |
| 2026-04-25 20:40 | 18.73051 | -17.19417 | 34882 ft | 465 kts | 191° |
| 2026-04-25 20:40 | 18.66583 | -17.19883 | 34879 ft | 464 kts | 191° |
| 2026-04-25 20:41 | 18.60146 | -17.20343 | 34878 ft | 463 kts | 191° |
| 2026-04-25 20:41 | 18.53675 | -17.20809 | 34879 ft | 464 kts | 191° |
| 2026-04-25 20:42 | 18.47219 | -17.21273 | 34880 ft | 466 kts | 191° |
| 2026-04-25 20:42 | 18.40760 | -17.21736 | 34874 ft | 463 kts | 191° |
| 2026-04-25 20:43 | 18.34309 | -17.22199 | 34876 ft | 465 kts | 191° |
| 2026-04-25 20:43 | 18.27809 | -17.22666 | 34878 ft | 467 kts | 191° |
| 2026-04-25 20:44 | 18.21346 | -17.23128 | 34875 ft | 465 kts | 191° |
| 2026-04-25 20:44 | 18.14877 | -17.23590 | 34875 ft | 465 kts | 191° |
| 2026-04-25 20:45 | 18.08375 | -17.24055 | 34876 ft | 465 kts | 191° |
| 2026-04-25 20:45 | 18.01920 | -17.24515 | 34873 ft | 464 kts | 191° |
| 2026-04-25 20:46 | 17.95465 | -17.24976 | 34877 ft | 465 kts | 191° |
| 2026-04-25 20:46 | 17.88980 | -17.25440 | 34877 ft | 466 kts | 191° |
| 2026-04-25 20:47 | 17.82482 | -17.25902 | 34875 ft | 465 kts | 191° |
| 2026-04-25 20:47 | 17.76021 | -17.26362 | 34876 ft | 465 kts | 191° |
| 2026-04-25 20:48 | 17.69556 | -17.26822 | 34876 ft | 465 kts | 191° |
| 2026-04-25 20:48 | 17.63051 | -17.27286 | 34869 ft | 467 kts | 191° |
| 2026-04-25 20:49 | 17.56560 | -17.27748 | 34872 ft | 467 kts | 191° |
| 2026-04-25 20:49 | 17.50073 | -17.28207 | 34864 ft | 468 kts | 190° |
| 2026-04-25 20:50 | 17.43576 | -17.28668 | 34868 ft | 466 kts | 190° |
| 2026-04-25 20:50 | 17.37077 | -17.29129 | 34867 ft | 468 kts | 190° |
| 2026-04-25 20:51 | 17.30581 | -17.29590 | 34864 ft | 466 kts | 190° |
| 2026-04-25 20:51 | 17.24086 | -17.30050 | 34859 ft | 467 kts | 190° |
| 2026-04-25 20:52 | 17.18655 | -17.30434 | 34859 ft | 468 kts | 190° |
| 2026-04-25 20:52 | 17.11049 | -17.30973 | 34856 ft | 468 kts | 190° |
| 2026-04-25 20:53 | 17.04547 | -17.31430 | 34858 ft | 468 kts | 190° |
| 2026-04-25 20:53 | 16.98038 | -17.31890 | 34856 ft | 468 kts | 190° |
| 2026-04-25 20:54 | 16.91500 | -17.32351 | 34861 ft | 468 kts | 190° |
| 2026-04-25 20:54 | 16.84983 | -17.32811 | 34864 ft | 470 kts | 190° |
| 2026-04-25 20:55 | 16.78439 | -17.33187 | 34873 ft | 473 kts | 187° |
| 2026-04-25 20:55 | 16.71796 | -17.32523 | 34872 ft | 484 kts | 173° |
| 2026-04-25 20:56 | 16.65247 | -17.30716 | 34871 ft | 486 kts | 168° |
| 2026-04-25 20:56 | 16.58779 | -17.28564 | 34868 ft | 489 kts | 167° |
| 2026-04-25 20:57 | 16.52309 | -17.26368 | 34871 ft | 488 kts | 167° |
| 2026-04-25 20:57 | 16.45809 | -17.24207 | 34865 ft | 489 kts | 167° |
| 2026-04-25 20:58 | 16.39309 | -17.22087 | 34860 ft | 488 kts | 167° |
| 2026-04-25 20:58 | 16.32828 | -17.19991 | 34857 ft | 487 kts | 167° |
| 2026-04-25 20:59 | 16.26306 | -17.17894 | 34860 ft | 489 kts | 167° |
| 2026-04-25 20:59 | 16.19806 | -17.15805 | 34857 ft | 489 kts | 167° |
| 2026-04-25 21:00 | 16.14392 | -17.14066 | 34859 ft | 489 kts | 167° |
| 2026-04-25 21:01 | 16.03525 | -17.10577 | 34851 ft | 488 kts | 167° |
| 2026-04-25 21:01 | 15.97028 | -17.08493 | 34849 ft | 488 kts | 167° |
| 2026-04-25 21:02 | 15.90529 | -17.06409 | 34849 ft | 489 kts | 167° |
| 2026-04-25 21:02 | 15.84024 | -17.04326 | 34850 ft | 488 kts | 167° |
| 2026-04-25 21:03 | 15.77486 | -17.02233 | 34850 ft | 490 kts | 167° |
| 2026-04-25 21:03 | 15.70976 | -17.00150 | 34848 ft | 489 kts | 167° |
| 2026-04-25 21:04 | 15.64449 | -16.98064 | 34849 ft | 490 kts | 167° |
| 2026-04-25 21:04 | 15.57917 | -16.95977 | 34850 ft | 489 kts | 167° |
| 2026-04-25 21:05 | 15.51394 | -16.93895 | 34845 ft | 490 kts | 167° |
| 2026-04-25 21:05 | 15.44881 | -16.91816 | 34848 ft | 489 kts | 167° |
| 2026-04-25 21:06 | 15.38365 | -16.89758 | 34847 ft | 489 kts | 168° |
| 2026-04-25 21:06 | 15.31714 | -16.88412 | 34845 ft | 481 kts | 181° |
| 2026-04-25 21:07 | 15.25116 | -16.88915 | 34846 ft | 472 kts | 194° |
| 2026-04-25 21:07 | 15.18685 | -16.90298 | 34846 ft | 471 kts | 198° |
| 2026-04-25 21:08 | 15.12292 | -16.91902 | 34844 ft | 470 kts | 199° |
| 2026-04-25 21:08 | 15.09257 | -16.93048 | 34841 ft | 461 kts | 213° |
| 2026-04-25 21:08 | 15.06666 | -16.94944 | 34848 ft | 452 kts | 229° |
| 2026-04-25 21:08 | 15.04746 | -16.97457 | 34847 ft | 443 kts | 245° |
| 2026-04-25 21:09 | 15.03202 | -17.03455 | 34853 ft | 432 kts | 269° |
| 2026-04-25 21:09 | 15.03153 | -17.09654 | 34821 ft | 429 kts | 273° |
| 2026-04-25 21:10 | 15.03248 | -17.12709 | 34486 ft | 424 kts | 274° |
| 2026-04-25 21:10 | 15.03361 | -17.15749 | 33570 ft | 428 kts | 274° |
| 2026-04-25 21:10 | 15.03478 | -17.18825 | 32555 ft | 431 kts | 275° |
| 2026-04-25 21:10 | 15.03583 | -17.21878 | 32381 ft | 420 kts | 274° |
| 2026-04-25 21:11 | 15.03774 | -17.27924 | 32381 ft | 427 kts | 274° |
| 2026-04-25 21:11 | 15.03975 | -17.34160 | 32044 ft | 438 kts | 274° |
| 2026-04-25 21:12 | 15.04076 | -17.37304 | 31767 ft | 439 kts | 274° |
| 2026-04-25 21:12 | 15.04173 | -17.40457 | 31261 ft | 441 kts | 274° |
| 2026-04-25 21:12 | 15.04270 | -17.43619 | 30710 ft | 442 kts | 274° |
| 2026-04-25 21:12 | 15.04335 | -17.45742 | 30340 ft | 441 kts | 274° |
| 2026-04-25 21:13 | 15.04460 | -17.49950 | 29615 ft | 444 kts | 274° |
| 2026-04-25 21:13 | 15.04388 | -17.53172 | 29057 ft | 453 kts | 265° |
| 2026-04-25 21:13 | 15.03542 | -17.56345 | 28516 ft | 467 kts | 250° |
| 2026-04-25 21:13 | 15.01848 | -17.59237 | 27980 ft | 478 kts | 235° |
| 2026-04-25 21:14 | 14.99416 | -17.61612 | 27443 ft | 487 kts | 219° |
| 2026-04-25 21:14 | 14.96414 | -17.63281 | 26908 ft | 495 kts | 204° |
| 2026-04-25 21:14 | 14.93039 | -17.64113 | 26366 ft | 502 kts | 189° |
| 2026-04-25 21:14 | 14.89525 | -17.64057 | 25827 ft | 507 kts | 175° |
| 2026-04-25 21:15 | 14.86026 | -17.63382 | 25285 ft | 508 kts | 168° |
| 2026-04-25 21:15 | 14.82606 | -17.62457 | 24745 ft | 506 kts | 166° |
| 2026-04-25 21:15 | 14.79242 | -17.61438 | 24272 ft | 499 kts | 165° |
| 2026-04-25 21:15 | 14.75942 | -17.60397 | 24051 ft | 494 kts | 164° |
| 2026-04-25 21:16 | 14.72642 | -17.59342 | 23702 ft | 496 kts | 164° |
| 2026-04-25 21:16 | 14.69364 | -17.58290 | 23297 ft | 488 kts | 164° |
| 2026-04-25 21:16 | 14.66156 | -17.57261 | 22893 ft | 477 kts | 164° |
| 2026-04-25 21:16 | 14.62991 | -17.56246 | 22488 ft | 467 kts | 164° |
| 2026-04-25 21:17 | 14.59903 | -17.55258 | 22100 ft | 464 kts | 164° |
| 2026-04-25 21:17 | 14.56813 | -17.54214 | 21703 ft | 471 kts | 159° |
| 2026-04-25 21:17 | 14.53935 | -17.52591 | 21315 ft | 472 kts | 146° |
| 2026-04-25 21:17 | 14.51406 | -17.50454 | 20930 ft | 469 kts | 139° |
| 2026-04-25 21:18 | 14.49059 | -17.48127 | 20535 ft | 468 kts | 136° |
| 2026-04-25 21:18 | 14.46787 | -17.45737 | 20098 ft | 466 kts | 135° |
| 2026-04-25 21:18 | 14.44536 | -17.43314 | 19659 ft | 464 kts | 134° |
| 2026-04-25 21:18 | 14.42328 | -17.40915 | 19218 ft | 461 kts | 134° |
| 2026-04-25 21:19 | 14.40135 | -17.38520 | 18775 ft | 458 kts | 134° |
| 2026-04-25 21:19 | 14.37960 | -17.36137 | 18337 ft | 455 kts | 134° |
| 2026-04-25 21:19 | 14.35812 | -17.33779 | 17891 ft | 447 kts | 134° |
| 2026-04-25 21:19 | 14.33514 | -17.31694 | 17447 ft | 436 kts | 148° |
| 2026-04-25 21:20 | 14.30818 | -17.30359 | 17019 ft | 426 kts | 165° |
| 2026-04-25 21:20 | 14.28884 | -17.29956 | 16729 ft | 420 kts | 176° |
| 2026-04-25 21:20 | 14.25018 | -17.30126 | 16159 ft | 414 kts | 189° |
| 2026-04-25 21:20 | 14.22190 | -17.30613 | 15862 ft | 408 kts | 193° |
| 2026-04-25 21:21 | 14.19411 | -17.31184 | 15842 ft | 408 kts | 193° |
| 2026-04-25 21:21 | 14.16608 | -17.31795 | 15835 ft | 412 kts | 194° |
| 2026-04-25 21:21 | 14.13774 | -17.32264 | 15836 ft | 413 kts | 184° |
| 2026-04-25 21:21 | 14.10905 | -17.31965 | 15834 ft | 416 kts | 167° |
| 2026-04-25 21:22 | 14.08204 | -17.30797 | 15627 ft | 419 kts | 149° |
| 2026-04-25 21:22 | 14.05989 | -17.28864 | 15392 ft | 417 kts | 131° |
| 2026-04-25 21:22 | 14.04463 | -17.26355 | 15160 ft | 415 kts | 114° |
| 2026-04-25 21:22 | 14.03754 | -17.23493 | 14934 ft | 416 kts | 96° |
| 2026-04-25 21:23 | 14.03731 | -17.20529 | 14709 ft | 414 kts | 87° |
| 2026-04-25 21:23 | 14.04228 | -17.17640 | 14463 ft | 411 kts | 71° |
| 2026-04-25 21:23 | 14.05605 | -17.15089 | 14233 ft | 409 kts | 51° |
| 2026-04-25 21:23 | 14.07709 | -17.13110 | 14009 ft | 408 kts | 34° |
| 2026-04-25 21:24 | 14.10201 | -17.11734 | 13752 ft | 407 kts | 20° |
| 2026-04-25 21:24 | 14.12934 | -17.10960 | 13409 ft | 406 kts | 11° |
| 2026-04-25 21:24 | 14.15709 | -17.10460 | 13041 ft | 402 kts | 8° |
| 2026-04-25 21:24 | 14.18473 | -17.10059 | 12481 ft | 399 kts | 7° |
| 2026-04-25 21:25 | 14.21178 | -17.09688 | 11823 ft | 385 kts | 7° |
| 2026-04-25 21:25 | 14.23788 | -17.09315 | 11136 ft | 373 kts | 8° |
| 2026-04-25 21:25 | 14.26344 | -17.08926 | 10385 ft | 365 kts | 8° |
| 2026-04-25 21:25 | 14.28828 | -17.08527 | 9645 ft | 359 kts | 9° |
| 2026-04-25 21:26 | 14.31221 | -17.08129 | 8912 ft | 353 kts | 9° |
| 2026-04-25 21:26 | 14.33670 | -17.07713 | 8149 ft | 345 kts | 9° |
| 2026-04-25 21:26 | 14.36011 | -17.07311 | 7396 ft | 338 kts | 9° |
| 2026-04-25 21:26 | 14.38303 | -17.06915 | 6644 ft | 331 kts | 9° |
| 2026-04-25 21:27 | 14.40566 | -17.06695 | 5887 ft | 325 kts | 358° |
| 2026-04-25 21:27 | 14.42800 | -17.06956 | 5138 ft | 319 kts | 353° |
| 2026-04-25 21:27 | 14.44993 | -17.07171 | 4407 ft | 312 kts | 358° |
| 2026-04-25 21:27 | 14.47116 | -17.07151 | 3944 ft | 298 kts | 2° |
| 2026-04-25 21:28 | 14.49144 | -17.07090 | 3501 ft | 285 kts | 1° |
| 2026-04-25 21:28 | 14.51089 | -17.07110 | 3073 ft | 271 kts | 359° |
| 2026-04-25 21:28 | 14.52869 | -17.07158 | 2713 ft | 241 kts | 360° |
| 2026-04-25 21:28 | 14.54458 | -17.07170 | 2402 ft | 216 kts | 1° |
| 2026-04-25 21:29 | 14.55900 | -17.07173 | 2134 ft | 195 kts | 0° |
| 2026-04-25 21:29 | 14.57182 | -17.07190 | 1930 ft | 174 kts | 360° |
| 2026-04-25 21:29 | 14.58339 | -17.07202 | 1685 ft | 156 kts | 0° |
| 2026-04-25 21:29 | 14.59386 | -17.07207 | 1433 ft | 145 kts | 360° |
| 2026-04-25 21:30 | 14.60392 | -17.07220 | 1288 ft | 146 kts | 359° |
| 2026-04-25 21:30 | 14.61412 | -17.07230 | 1090 ft | 145 kts | 360° |
| 2026-04-25 21:30 | 14.62417 | -17.07237 | 890 ft | 143 kts | 359° |
| 2026-04-25 21:30 | 14.63087 | -17.07245 | 772 ft | 144 kts | 359° |
| 2026-04-25 21:31 | 14.64432 | -17.07256 | 520 ft | 145 kts | 359° |
| 2026-04-25 21:31 | 14.65438 | -17.07260 | 348 ft | 142 kts | 359° |
| 2026-04-25 21:31 | 14.66372 | -17.07270 | 283 ft | 121 kts | 359° |
| 2026-04-25 21:31 | 14.67027 | -17.07281 | 291 ft | 70 kts | 360° |
| 2026-04-25 21:32 | 14.67377 | -17.07285 | 289 ft | 33 kts | 359° |
| 2026-04-25 21:32 | 14.67509 | -17.07284 | 285 ft | 10 kts | 3° |
| 2026-04-25 21:32 | 14.67634 | -17.07270 | 281 ft | 30 kts | 15° |
| 2026-04-25 21:32 | 14.67833 | -17.07172 | 274 ft | 11 kts | 43° |
| 2026-04-25 21:33 | 14.67840 | -17.07131 | 273 ft | 0 kts | 111° |
| 2026-04-25 21:34 | 14.67840 | -17.07130 | 273 ft | 1 kts | 111° |
| 2026-04-25 21:34 | 14.67811 | -17.07096 | 273 ft | 11 kts | 144° |
| 2026-04-25 21:34 | 14.67722 | -17.07096 | 275 ft | 17 kts | 182° |
| 2026-04-25 21:34 | 14.67611 | -17.07096 | 276 ft | 15 kts | 179° |
| 2026-04-25 21:35 | 14.67535 | -17.07052 | 275 ft | 13 kts | 100° |
| 2026-04-25 21:35 | 14.67536 | -17.06957 | 274 ft | 12 kts | 89° |
| 2026-04-25 21:35 | 14.67536 | -17.06879 | 273 ft | 9 kts | 91° |
| 2026-04-25 21:35 | 14.67536 | -17.06819 | 272 ft | 6 kts | 89° |
| 2026-04-25 21:36 | 14.67557 | -17.06801 | 272 ft | 5 kts | 347° |
| 2026-04-25 21:36 | 14.67598 | -17.06804 | 270 ft | 7 kts | 360° |
| 2026-04-25 21:36 | 14.67635 | -17.06805 | 268 ft | 0 kts | 359° |